createdAt,value
2022-12-25T00:00:29.233Z,0
2022-12-25T00:05:48.161Z,0
2022-12-25T00:11:07.762Z,0
2022-12-25T00:16:27.394Z,0
2022-12-25T00:21:46.878Z,0
2022-12-25T00:32:24.650Z,0
2022-12-25T00:37:43.964Z,0
2022-12-25T00:48:22.568Z,0
2022-12-25T00:53:41.409Z,0
2022-12-25T00:59:01.148Z,0
2022-12-25T01:04:20.868Z,0
2022-12-25T01:14:59.826Z,0
2022-12-25T01:20:19.210Z,0
2022-12-25T01:30:57.073Z,0
2022-12-25T01:36:16.125Z,0
2022-12-25T01:46:55.178Z,0
2022-12-25T01:57:34.016Z,0
2022-12-25T02:02:53.748Z,0
2022-12-25T02:14:47.405Z,0
2022-12-25T02:18:50.330Z,0
2022-12-25T02:24:10.057Z,0
2022-12-25T02:29:29.083Z,0
2022-12-25T02:34:48.493Z,0
2022-12-25T02:40:07.361Z,0
2022-12-25T02:45:26.190Z,0
2022-12-25T02:56:05.232Z,0
2022-12-25T03:01:25.600Z,0
2022-12-25T03:12:03.786Z,0
2022-12-25T03:17:22.761Z,0
2022-12-25T03:22:42.256Z,0
2022-12-25T03:28:01.890Z,0
2022-12-25T03:38:40.057Z,0
2022-12-25T03:43:58.168Z,0
2022-12-25T03:54:37.294Z,0
2022-12-25T03:59:56.451Z,0
2022-12-25T04:10:35.005Z,0
2022-12-25T04:15:54.030Z,0
2022-12-25T04:21:12.958Z,0
2022-12-25T04:26:31.412Z,0
2022-12-25T04:37:09.721Z,0
2022-12-25T04:42:29.734Z,0
2022-12-25T04:53:07.776Z,0
2022-12-25T04:58:27.426Z,0
2022-12-25T05:03:47.088Z,0
2022-12-25T05:09:06.650Z,0
2022-12-25T05:14:26.341Z,0
2022-12-25T05:19:45.289Z,0
2022-12-25T05:25:04.969Z,0
2022-12-25T05:35:43.064Z,0
2022-12-25T05:41:02.431Z,0
2022-12-25T05:46:22.252Z,0
2022-12-25T05:51:41.873Z,0
2022-12-25T06:02:19.941Z,0
2022-12-25T06:07:38.857Z,0
2022-12-25T06:12:57.812Z,0
2022-12-25T06:18:18.310Z,0
2022-12-25T06:23:37.009Z,0
2022-12-25T06:28:55.785Z,0
2022-12-25T06:34:16.025Z,0
2022-12-25T06:39:34.860Z,0
2022-12-25T06:44:53.543Z,1
2022-12-25T06:50:12.799Z,5
2022-12-25T07:00:51.976Z,26
2022-12-25T07:06:11.391Z,53
2022-12-25T07:22:09.471Z,245
2022-12-25T07:27:28.876Z,327
2022-12-25T07:38:07.961Z,535
2022-12-25T07:43:27.420Z,924
2022-12-25T07:54:05.606Z,1022
2022-12-25T07:59:24.858Z,1135
2022-12-25T08:04:44.189Z,1547
2022-12-25T08:10:03.421Z,1805
2022-12-25T08:15:22.389Z,2020
2022-12-25T08:20:41.284Z,2122
2022-12-25T08:26:04.397Z,2548
2022-12-25T08:36:39.087Z,3284
2022-12-25T08:41:58.496Z,3568
2022-12-25T08:52:37.372Z,3907
2022-12-25T09:03:15.982Z,4598
2022-12-25T09:08:34.764Z,4311
2022-12-25T09:19:14.395Z,6467
2022-12-25T09:24:33.396Z,4160
2022-12-25T09:35:12.165Z,3233
2022-12-25T09:40:30.227Z,7381
2022-12-25T09:45:48.995Z,7476
2022-12-25T09:51:08.213Z,9585
2022-12-25T09:56:27.490Z,8438
2022-12-25T10:01:46.702Z,8755
2022-12-25T10:07:05.383Z,8327
2022-12-25T10:17:43.783Z,7614
2022-12-25T10:23:03.316Z,6850
2022-12-25T10:28:22.195Z,7787
2022-12-25T10:33:41.034Z,7456
2022-12-25T10:44:19.162Z,7244
2022-12-25T10:49:38.259Z,7373
2022-12-25T11:00:16.495Z,8199
2022-12-25T11:05:36.162Z,6664
2022-12-25T11:10:55.425Z,5766
2022-12-25T11:16:14.343Z,8066
2022-12-25T11:21:42.587Z,8696
2022-12-25T11:26:53.200Z,6764
2022-12-25T11:32:12.231Z,4165
2022-12-25T11:42:51.521Z,6118
2022-12-25T11:48:10.065Z,6812
2022-12-25T11:58:48.700Z,7880
2022-12-25T12:04:07.622Z,6623
2022-12-25T12:09:26.758Z,6111
2022-12-25T12:14:46.378Z,6817
2022-12-25T12:20:06.130Z,7334
2022-12-25T12:25:25.758Z,6673
2022-12-25T12:41:22.757Z,5855
2022-12-25T12:46:41.626Z,4619
2022-12-25T12:52:00.966Z,5053
2022-12-25T12:57:19.997Z,6478
2022-12-25T13:07:58.637Z,6186
2022-12-25T13:13:27.877Z,6636
2022-12-25T13:23:56.325Z,5275
2022-12-25T13:29:16.167Z,4790
2022-12-25T13:34:35.314Z,4326
2022-12-25T13:39:54.628Z,3009
2022-12-25T13:45:14.204Z,2786
2022-12-25T13:50:33.774Z,2713
2022-12-25T13:55:52.453Z,2745
2022-12-25T14:01:11.809Z,2515
2022-12-25T14:06:31.343Z,2860
2022-12-25T14:17:09.252Z,2638
2022-12-25T14:22:28.372Z,1862
2022-12-25T14:27:47.363Z,1680
2022-12-25T14:33:06.669Z,1564
2022-12-25T14:38:25.553Z,1234
2022-12-25T14:43:44.957Z,993
2022-12-25T14:49:03.763Z,877
2022-12-25T14:59:43.506Z,577
2022-12-25T15:05:03.127Z,490
2022-12-25T15:15:41.000Z,214
2022-12-25T15:20:59.904Z,149
2022-12-25T15:26:18.926Z,130
2022-12-25T15:31:37.820Z,106
2022-12-25T15:37:32.080Z,55
2022-12-25T15:48:10.368Z,11
2022-12-25T15:53:29.680Z,3
2022-12-25T15:58:49.075Z,0
2022-12-25T16:04:08.283Z,0
2022-12-25T16:09:28.013Z,0
2022-12-25T16:14:46.905Z,0
2022-12-25T16:20:05.458Z,0
2022-12-25T16:30:43.912Z,0
2022-12-25T16:36:03.542Z,0
2022-12-25T16:41:22.264Z,0
2022-12-25T16:46:41.858Z,0
2022-12-25T16:52:01.067Z,0
2022-12-25T16:57:20.614Z,0
2022-12-25T17:02:39.715Z,0
2022-12-25T17:13:18.212Z,0
2022-12-25T17:18:37.859Z,0
2022-12-25T17:29:21.565Z,0
2022-12-25T17:34:36.183Z,0
2022-12-25T17:39:55.547Z,0
2022-12-25T17:45:15.230Z,0
2022-12-25T17:50:39.293Z,0
2022-12-25T17:55:52.897Z,0
2022-12-25T18:01:11.207Z,0
2022-12-25T18:06:30.290Z,0
2022-12-25T18:11:49.782Z,0
2022-12-25T18:17:08.604Z,0
2022-12-25T18:22:27.864Z,0
2022-12-25T18:27:46.709Z,0
2022-12-25T18:38:25.307Z,0
2022-12-25T18:43:51.744Z,0
2022-12-25T18:54:23.017Z,0
2022-12-25T18:59:42.480Z,0
2022-12-25T19:05:01.864Z,0
2022-12-25T19:10:20.819Z,0
2022-12-25T19:20:59.889Z,0
2022-12-25T19:26:19.158Z,0
2022-12-25T19:36:57.912Z,0
2022-12-25T19:42:16.663Z,0
2022-12-25T19:47:35.656Z,0
2022-12-25T19:52:55.031Z,0
2022-12-25T19:58:13.965Z,0
2022-12-25T20:03:33.193Z,0
2022-12-25T20:08:52.352Z,0
2022-12-25T20:19:31.002Z,0
2022-12-25T20:24:49.743Z,0
2022-12-25T20:30:08.617Z,0
2022-12-25T20:35:27.654Z,0
2022-12-25T20:46:06.940Z,0
2022-12-25T20:51:25.413Z,0
2022-12-25T20:56:45.066Z,0
2022-12-25T21:02:04.778Z,0
2022-12-25T21:07:24.322Z,0
2022-12-25T21:12:43.889Z,0
2022-12-25T21:18:03.003Z,0
2022-12-25T21:23:22.254Z,0
2022-12-25T21:28:41.230Z,0
2022-12-25T21:39:19.856Z,0
2022-12-25T21:44:39.231Z,0
2022-12-25T21:55:17.839Z,0
2022-12-25T22:00:36.646Z,0
2022-12-25T22:05:56.064Z,0
2022-12-25T22:11:15.800Z,0
2022-12-25T22:16:34.574Z,0
2022-12-25T22:21:53.852Z,0
2022-12-25T22:27:13.313Z,0
2022-12-25T22:37:52.544Z,0
2022-12-25T22:43:11.824Z,0
2022-12-25T22:53:50.161Z,0
2022-12-25T22:59:09.784Z,0
2022-12-25T23:04:28.762Z,0
2022-12-25T23:09:47.815Z,0
2022-12-25T23:20:25.762Z,0
2022-12-25T23:25:44.605Z,0
2022-12-25T23:36:23.588Z,0
2022-12-25T23:47:02.294Z,0
2022-12-25T23:52:22.019Z,0
